sensor_id;sensor_type;location;lat;lon;timestamp;P1;durP1;ratioP1;P2;durP2;ratioP2
66707;SDS011;53622;0.000;0.000;2023-04-01T00:00:16;2.00;;;0.68;;
66707;SDS011;53622;0.000;0.000;2023-04-01T00:02:47;3.03;;;0.90;;
66707;SDS011;53622;0.000;0.000;2023-04-01T00:05:18;2.78;;;0.75;;
66707;SDS011;53622;0.000;0.000;2023-04-01T00:07:48;2.10;;;0.60;;
66707;SDS011;53622;0.000;0.000;2023-04-01T00:10:18;1.38;;;0.50;;
66707;SDS011;53622;0.000;0.000;2023-04-01T00:12:47;0.73;;;0.50;;
66707;SDS011;53622;0.000;0.000;2023-04-01T00:15:16;2.85;;;0.73;;
66707;SDS011;53622;0.000;0.000;2023-04-01T00:17:46;1.45;;;0.50;;
66707;SDS011;53622;0.000;0.000;2023-04-01T00:20:15;1.27;;;0.57;;
66707;SDS011;53622;0.000;0.000;2023-04-01T00:22:46;1.02;;;0.60;;
66707;SDS011;53622;0.000;0.000;2023-04-01T00:25:15;2.03;;;0.60;;
66707;SDS011;53622;0.000;0.000;2023-04-01T00:27:45;1.25;;;0.60;;
66707;SDS011;53622;0.000;0.000;2023-04-01T00:30:14;1.63;;;0.52;;
66707;SDS011;53622;0.000;0.000;2023-04-01T00:32:44;2.05;;;0.60;;
66707;SDS011;53622;0.000;0.000;2023-04-01T00:35:13;1.55;;;0.75;;
66707;SDS011;53622;0.000;0.000;2023-04-01T00:37:44;2.35;;;0.65;;
66707;SDS011;53622;0.000;0.000;2023-04-01T00:40:21;1.27;;;0.60;;
66707;SDS011;53622;0.000;0.000;2023-04-01T00:42:59;1.88;;;0.70;;
66707;SDS011;53622;0.000;0.000;2023-04-01T00:45:33;1.90;;;0.68;;
66707;SDS011;53622;0.000;0.000;2023-04-01T00:48:04;1.45;;;0.60;;
66707;SDS011;53622;0.000;0.000;2023-04-01T00:50:37;2.05;;;0.80;;
66707;SDS011;53622;0.000;0.000;2023-04-01T00:53:10;2.88;;;0.77;;
66707;SDS011;53622;0.000;0.000;2023-04-01T00:55:41;0.82;;;0.57;;
66707;SDS011;53622;0.000;0.000;2023-04-01T00:58:18;1.88;;;0.77;;
66707;SDS011;53622;0.000;0.000;2023-04-01T01:00:52;1.70;;;0.90;;
66707;SDS011;53622;0.000;0.000;2023-04-01T01:03:23;3.15;;;0.70;;
66707;SDS011;53622;0.000;0.000;2023-04-01T01:06:00;2.42;;;0.70;;
66707;SDS011;53622;0.000;0.000;2023-04-01T01:09:05;1.38;;;0.63;;
66707;SDS011;53622;0.000;0.000;2023-04-01T01:11:42;2.30;;;0.70;;
66707;SDS011;53622;0.000;0.000;2023-04-01T01:14:21;1.10;;;0.60;;
66707;SDS011;53622;0.000;0.000;2023-04-01T01:16:58;2.45;;;0.70;;
66707;SDS011;53622;0.000;0.000;2023-04-01T01:22:59;0.85;;;0.60;;
66707;SDS011;53622;0.000;0.000;2023-04-01T01:25:52;1.20;;;0.82;;
66707;SDS011;53622;0.000;0.000;2023-04-01T01:28:36;2.25;;;1.10;;
66707;SDS011;53622;0.000;0.000;2023-04-01T01:31:22;1.00;;;0.60;;
66707;SDS011;53622;0.000;0.000;2023-04-01T01:34:02;1.52;;;0.82;;
66707;SDS011;53622;0.000;0.000;2023-04-01T01:36:43;1.05;;;0.70;;
66707;SDS011;53622;0.000;0.000;2023-04-01T01:39:17;1.15;;;0.77;;
66707;SDS011;53622;0.000;0.000;2023-04-01T01:41:48;1.25;;;0.60;;
66707;SDS011;53622;0.000;0.000;2023-04-01T01:44:18;1.33;;;0.70;;
66707;SDS011;53622;0.000;0.000;2023-04-01T01:46:49;1.17;;;0.70;;
66707;SDS011;53622;0.000;0.000;2023-04-01T01:49:19;2.75;;;0.70;;
66707;SDS011;53622;0.000;0.000;2023-04-01T01:51:50;1.40;;;0.80;;
66707;SDS011;53622;0.000;0.000;2023-04-01T01:54:20;2.55;;;1.00;;
66707;SDS011;53622;0.000;0.000;2023-04-01T01:56:52;1.02;;;0.70;;
66707;SDS011;53622;0.000;0.000;2023-04-01T01:59:28;1.48;;;0.75;;
66707;SDS011;53622;0.000;0.000;2023-04-01T02:01:58;1.35;;;0.73;;
66707;SDS011;53622;0.000;0.000;2023-04-01T02:04:34;1.98;;;0.80;;
66707;SDS011;53622;0.000;0.000;2023-04-01T02:07:08;2.25;;;0.80;;
66707;SDS011;53622;0.000;0.000;2023-04-01T02:09:40;1.23;;;0.73;;
66707;SDS011;53622;0.000;0.000;2023-04-01T02:12:11;1.10;;;0.60;;
66707;SDS011;53622;0.000;0.000;2023-04-01T02:14:45;1.52;;;0.68;;
66707;SDS011;53622;0.000;0.000;2023-04-01T02:17:18;1.48;;;0.88;;
66707;SDS011;53622;0.000;0.000;2023-04-01T02:19:51;0.80;;;0.52;;
66707;SDS011;53622;0.000;0.000;2023-04-01T02:22:26;1.08;;;0.73;;
66707;SDS011;53622;0.000;0.000;2023-04-01T02:25:00;1.83;;;0.68;;
66707;SDS011;53622;0.000;0.000;2023-04-01T02:27:33;1.15;;;0.68;;
66707;SDS011;53622;0.000;0.000;2023-04-01T02:30:02;1.90;;;0.80;;
66707;SDS011;53622;0.000;0.000;2023-04-01T02:32:33;1.63;;;0.80;;
66707;SDS011;53622;0.000;0.000;2023-04-01T02:35:05;0.98;;;0.70;;
66707;SDS011;53622;0.000;0.000;2023-04-01T02:37:39;1.30;;;0.85;;
66707;SDS011;53622;0.000;0.000;2023-04-01T02:40:11;1.30;;;0.73;;
66707;SDS011;53622;0.000;0.000;2023-04-01T02:42:42;0.75;;;0.50;;
66707;SDS011;53622;0.000;0.000;2023-04-01T02:45:12;2.47;;;0.75;;
66707;SDS011;53622;0.000;0.000;2023-04-01T02:47:42;1.05;;;0.60;;
66707;SDS011;53622;0.000;0.000;2023-04-01T02:50:12;1.35;;;0.70;;
66707;SDS011;53622;0.000;0.000;2023-04-01T02:52:42;0.52;;;0.50;;
66707;SDS011;53622;0.000;0.000;2023-04-01T02:55:12;2.08;;;0.80;;
66707;SDS011;53622;0.000;0.000;2023-04-01T02:57:42;1.13;;;0.70;;
66707;SDS011;53622;0.000;0.000;2023-04-01T03:00:11;1.05;;;0.60;;
66707;SDS011;53622;0.000;0.000;2023-04-01T03:02:41;0.82;;;0.60;;
66707;SDS011;53622;0.000;0.000;2023-04-01T03:05:11;0.82;;;0.60;;
66707;SDS011;53622;0.000;0.000;2023-04-01T03:07:40;1.25;;;0.57;;
66707;SDS011;53622;0.000;0.000;2023-04-01T03:10:12;1.20;;;0.60;;
66707;SDS011;53622;0.000;0.000;2023-04-01T03:12:42;0.90;;;0.77;;
66707;SDS011;53622;0.000;0.000;2023-04-01T03:15:11;0.95;;;0.75;;
66707;SDS011;53622;0.000;0.000;2023-04-01T03:17:42;1.33;;;0.70;;
66707;SDS011;53622;0.000;0.000;2023-04-01T03:20:14;1.67;;;0.60;;
66707;SDS011;53622;0.000;0.000;2023-04-01T03:22:43;1.52;;;0.70;;
66707;SDS011;53622;0.000;0.000;2023-04-01T03:25:14;1.52;;;0.60;;
66707;SDS011;53622;0.000;0.000;2023-04-01T03:27:43;0.95;;;0.60;;
66707;SDS011;53622;0.000;0.000;2023-04-01T03:30:13;1.20;;;0.60;;
66707;SDS011;53622;0.000;0.000;2023-04-01T03:32:49;2.75;;;0.82;;
66707;SDS011;53622;0.000;0.000;2023-04-01T03:35:18;2.35;;;0.70;;
66707;SDS011;53622;0.000;0.000;2023-04-01T03:37:47;1.15;;;0.60;;
66707;SDS011;53622;0.000;0.000;2023-04-01T03:40:20;0.65;;;0.60;;
66707;SDS011;53622;0.000;0.000;2023-04-01T03:42:49;6.03;;;0.55;;
66707;SDS011;53622;0.000;0.000;2023-04-01T03:45:19;1.88;;;0.82;;
66707;SDS011;53622;0.000;0.000;2023-04-01T03:47:49;0.75;;;0.55;;
66707;SDS011;53622;0.000;0.000;2023-04-01T03:50:18;3.35;;;0.55;;
66707;SDS011;53622;0.000;0.000;2023-04-01T03:52:47;1.38;;;0.63;;
66707;SDS011;53622;0.000;0.000;2023-04-01T03:55:17;1.42;;;0.68;;
66707;SDS011;53622;0.000;0.000;2023-04-01T03:57:48;1.63;;;0.50;;
66707;SDS011;53622;0.000;0.000;2023-04-01T04:00:18;2.13;;;0.65;;
66707;SDS011;53622;0.000;0.000;2023-04-01T04:02:53;0.63;;;0.35;;
66707;SDS011;53622;0.000;0.000;2023-04-01T04:05:29;1.33;;;0.55;;
66707;SDS011;53622;0.000;0.000;2023-04-01T04:08:00;0.68;;;0.43;;
66707;SDS011;53622;0.000;0.000;2023-04-01T04:10:29;1.05;;;0.60;;
66707;SDS011;53622;0.000;0.000;2023-04-01T04:13:00;1.98;;;0.55;;
66707;SDS011;53622;0.000;0.000;2023-04-01T04:15:31;1.17;;;0.60;;
66707;SDS011;53622;0.000;0.000;2023-04-01T04:18:00;1.65;;;0.65;;
66707;SDS011;53622;0.000;0.000;2023-04-01T04:20:30;1.08;;;0.35;;
66707;SDS011;53622;0.000;0.000;2023-04-01T04:22:59;1.30;;;0.65;;
66707;SDS011;53622;0.000;0.000;2023-04-01T04:25:29;1.58;;;0.60;;
66707;SDS011;53622;0.000;0.000;2023-04-01T04:28:00;1.85;;;0.40;;
66707;SDS011;53622;0.000;0.000;2023-04-01T04:30:29;0.85;;;0.43;;
66707;SDS011;53622;0.000;0.000;2023-04-01T04:32:58;1.35;;;0.68;;
66707;SDS011;53622;0.000;0.000;2023-04-01T04:35:28;0.63;;;0.38;;
66707;SDS011;53622;0.000;0.000;2023-04-01T04:37:57;0.90;;;0.50;;
66707;SDS011;53622;0.000;0.000;2023-04-01T04:40:26;0.98;;;0.55;;
66707;SDS011;53622;0.000;0.000;2023-04-01T04:42:55;0.40;;;0.40;;
66707;SDS011;53622;0.000;0.000;2023-04-01T04:45:26;1.63;;;0.40;;
66707;SDS011;53622;0.000;0.000;2023-04-01T04:47:56;1.42;;;0.65;;
66707;SDS011;53622;0.000;0.000;2023-04-01T04:50:25;1.65;;;0.70;;
66707;SDS011;53622;0.000;0.000;2023-04-01T04:52:55;0.70;;;0.40;;
66707;SDS011;53622;0.000;0.000;2023-04-01T04:55:24;1.50;;;0.63;;
66707;SDS011;53622;0.000;0.000;2023-04-01T04:58:13;0.95;;;0.47;;
66707;SDS011;53622;0.000;0.000;2023-04-01T05:00:45;0.60;;;0.30;;
66707;SDS011;53622;0.000;0.000;2023-04-01T05:03:22;0.75;;;0.47;;
66707;SDS011;53622;0.000;0.000;2023-04-01T05:05:52;1.15;;;0.50;;
66707;SDS011;53622;0.000;0.000;2023-04-01T05:08:22;0.50;;;0.38;;
66707;SDS011;53622;0.000;0.000;2023-04-01T05:10:51;1.83;;;0.47;;
66707;SDS011;53622;0.000;0.000;2023-04-01T05:13:21;0.90;;;0.60;;
66707;SDS011;53622;0.000;0.000;2023-04-01T05:15:52;0.82;;;0.40;;
66707;SDS011;53622;0.000;0.000;2023-04-01T05:18:21;0.95;;;0.43;;
66707;SDS011;53622;0.000;0.000;2023-04-01T05:20:51;1.30;;;0.40;;
66707;SDS011;53622;0.000;0.000;2023-04-01T05:23:22;0.65;;;0.40;;
66707;SDS011;53622;0.000;0.000;2023-04-01T05:25:51;1.42;;;0.40;;
66707;SDS011;53622;0.000;0.000;2023-04-01T05:28:21;0.47;;;0.28;;
66707;SDS011;53622;0.000;0.000;2023-04-01T05:30:53;1.48;;;0.32;;
66707;SDS011;53622;0.000;0.000;2023-04-01T05:33:29;2.13;;;0.60;;
66707;SDS011;53622;0.000;0.000;2023-04-01T05:36:05;5.20;;;0.90;;
66707;SDS011;53622;0.000;0.000;2023-04-01T05:38:35;3.35;;;0.70;;
66707;SDS011;53622;0.000;0.000;2023-04-01T05:41:07;4.60;;;0.60;;
66707;SDS011;53622;0.000;0.000;2023-04-01T05:43:40;2.15;;;0.30;;
66707;SDS011;53622;0.000;0.000;2023-04-01T05:46:30;2.55;;;0.45;;
66707;SDS011;53622;0.000;0.000;2023-04-01T05:49:10;2.92;;;0.70;;
66707;SDS011;53622;0.000;0.000;2023-04-01T05:51:40;1.40;;;0.60;;
66707;SDS011;53622;0.000;0.000;2023-04-01T05:54:09;1.75;;;0.32;;
66707;SDS011;53622;0.000;0.000;2023-04-01T05:56:46;2.00;;;0.60;;
66707;SDS011;53622;0.000;0.000;2023-04-01T05:59:18;1.30;;;0.50;;
66707;SDS011;53622;0.000;0.000;2023-04-01T06:01:49;2.10;;;0.50;;
66707;SDS011;53622;0.000;0.000;2023-04-01T06:04:19;4.03;;;0.77;;
66707;SDS011;53622;0.000;0.000;2023-04-01T06:06:49;2.85;;;0.60;;
66707;SDS011;53622;0.000;0.000;2023-04-01T06:09:21;4.15;;;0.70;;
66707;SDS011;53622;0.000;0.000;2023-04-01T06:12:06;6.93;;;0.80;;
66707;SDS011;53622;0.000;0.000;2023-04-01T06:14:57;5.82;;;0.73;;
66707;SDS011;53622;0.000;0.000;2023-04-01T06:17:46;5.45;;;0.88;;
66707;SDS011;53622;0.000;0.000;2023-04-01T06:20:29;8.52;;;0.90;;
66707;SDS011;53622;0.000;0.000;2023-04-01T06:23:18;6.32;;;0.77;;
66707;SDS011;53622;0.000;0.000;2023-04-01T06:26:09;4.13;;;0.60;;
66707;SDS011;53622;0.000;0.000;2023-04-01T06:28:56;6.05;;;0.80;;
66707;SDS011;53622;0.000;0.000;2023-04-01T06:31:50;6.97;;;0.88;;
66707;SDS011;53622;0.000;0.000;2023-04-01T06:37:39;6.82;;;1.05;;
66707;SDS011;53622;0.000;0.000;2023-04-01T06:43:39;4.03;;;0.60;;
66707;SDS011;53622;0.000;0.000;2023-04-01T06:46:52;5.68;;;0.70;;
66707;SDS011;53622;0.000;0.000;2023-04-01T06:49:48;4.93;;;0.93;;
66707;SDS011;53622;0.000;0.000;2023-04-01T06:52:45;6.72;;;1.40;;
66707;SDS011;53622;0.000;0.000;2023-04-01T06:55:39;5.68;;;0.80;;
66707;SDS011;53622;0.000;0.000;2023-04-01T06:58:37;1.40;;;0.70;;
66707;SDS011;53622;0.000;0.000;2023-04-01T07:01:12;2.10;;;0.50;;
66707;SDS011;53622;0.000;0.000;2023-04-01T07:03:47;6.75;;;0.82;;
66707;SDS011;53622;0.000;0.000;2023-04-01T07:06:24;5.88;;;1.00;;
66707;SDS011;53622;0.000;0.000;2023-04-01T07:08:59;5.95;;;0.85;;
66707;SDS011;53622;0.000;0.000;2023-04-01T07:11:52;6.00;;;0.95;;
66707;SDS011;53622;0.000;0.000;2023-04-01T07:14:47;7.68;;;0.80;;
66707;SDS011;53622;0.000;0.000;2023-04-01T07:17:19;6.63;;;1.00;;
66707;SDS011;53622;0.000;0.000;2023-04-01T07:19:52;7.45;;;0.90;;
66707;SDS011;53622;0.000;0.000;2023-04-01T07:22:27;7.85;;;1.25;;
66707;SDS011;53622;0.000;0.000;2023-04-01T07:25:24;6.10;;;0.93;;
66707;SDS011;53622;0.000;0.000;2023-04-01T07:28:15;5.43;;;0.90;;
66707;SDS011;53622;0.000;0.000;2023-04-01T07:30:57;5.25;;;0.98;;
66707;SDS011;53622;0.000;0.000;2023-04-01T07:33:36;4.97;;;1.05;;
66707;SDS011;53622;0.000;0.000;2023-04-01T07:36:13;7.93;;;1.42;;
66707;SDS011;53622;0.000;0.000;2023-04-01T07:38:50;12.25;;;1.48;;
66707;SDS011;53622;0.000;0.000;2023-04-01T07:41:51;8.25;;;1.25;;
66707;SDS011;53622;0.000;0.000;2023-04-01T07:44:28;9.65;;;1.38;;
66707;SDS011;53622;0.000;0.000;2023-04-01T07:47:09;8.02;;;1.80;;
66707;SDS011;53622;0.000;0.000;2023-04-01T07:49:51;15.88;;;4.10;;
66707;SDS011;53622;0.000;0.000;2023-04-01T07:52:34;19.35;;;5.05;;
66707;SDS011;53622;0.000;0.000;2023-04-01T07:55:22;12.70;;;3.80;;
66707;SDS011;53622;0.000;0.000;2023-04-01T07:58:01;14.30;;;3.28;;
66707;SDS011;53622;0.000;0.000;2023-04-01T08:00:40;10.43;;;3.28;;
66707;SDS011;53622;0.000;0.000;2023-04-01T08:03:36;13.07;;;2.63;;
66707;SDS011;53622;0.000;0.000;2023-04-01T08:06:23;7.70;;;2.50;;
66707;SDS011;53622;0.000;0.000;2023-04-01T08:08:59;6.30;;;2.22;;
66707;SDS011;53622;0.000;0.000;2023-04-01T08:11:56;12.82;;;2.95;;
66707;SDS011;53622;0.000;0.000;2023-04-01T08:14:55;7.15;;;2.05;;
66707;SDS011;53622;0.000;0.000;2023-04-01T08:18:04;3.80;;;1.77;;
66707;SDS011;53622;0.000;0.000;2023-04-01T08:20:41;7.25;;;2.00;;
66707;SDS011;53622;0.000;0.000;2023-04-01T08:23:14;6.25;;;1.90;;
66707;SDS011;53622;0.000;0.000;2023-04-01T08:25:48;4.25;;;1.80;;
66707;SDS011;53622;0.000;0.000;2023-04-01T08:28:27;2.95;;;1.55;;
66707;SDS011;53622;0.000;0.000;2023-04-01T08:31:05;4.07;;;1.67;;
66707;SDS011;53622;0.000;0.000;2023-04-01T08:33:43;4.10;;;1.73;;
66707;SDS011;53622;0.000;0.000;2023-04-01T08:36:16;4.68;;;1.85;;
66707;SDS011;53622;0.000;0.000;2023-04-01T08:39:02;4.97;;;1.90;;
66707;SDS011;53622;0.000;0.000;2023-04-01T08:41:44;4.28;;;1.75;;
66707;SDS011;53622;0.000;0.000;2023-04-01T08:44:37;3.67;;;1.50;;
66707;SDS011;53622;0.000;0.000;2023-04-01T08:47:44;5.68;;;1.65;;
66707;SDS011;53622;0.000;0.000;2023-04-01T08:56:33;2.80;;;1.30;;
66707;SDS011;53622;0.000;0.000;2023-04-01T08:59:17;4.82;;;1.92;;
66707;SDS011;53622;0.000;0.000;2023-04-01T09:02:10;5.63;;;1.50;;
66707;SDS011;53622;0.000;0.000;2023-04-01T09:05:36;5.28;;;1.52;;
66707;SDS011;53622;0.000;0.000;2023-04-01T09:08:36;4.10;;;1.45;;
66707;SDS011;53622;0.000;0.000;2023-04-01T09:11:24;2.38;;;1.38;;
66707;SDS011;53622;0.000;0.000;2023-04-01T09:14:22;2.97;;;1.25;;
66707;SDS011;53622;0.000;0.000;2023-04-01T09:20:52;3.63;;;1.30;;
66707;SDS011;53622;0.000;0.000;2023-04-01T09:23:53;2.33;;;1.00;;
66707;SDS011;53622;0.000;0.000;2023-04-01T09:30:05;3.03;;;1.05;;
66707;SDS011;53622;0.000;0.000;2023-04-01T09:35:58;2.50;;;1.23;;
66707;SDS011;53622;0.000;0.000;2023-04-01T09:38:38;3.30;;;1.08;;
66707;SDS011;53622;0.000;0.000;2023-04-01T09:41:20;2.60;;;1.00;;
66707;SDS011;53622;0.000;0.000;2023-04-01T09:44:09;3.13;;;1.10;;
66707;SDS011;53622;0.000;0.000;2023-04-01T09:47:10;3.35;;;0.95;;
66707;SDS011;53622;0.000;0.000;2023-04-01T09:50:00;1.80;;;0.93;;
66707;SDS011;53622;0.000;0.000;2023-04-01T09:52:54;2.08;;;0.80;;
66707;SDS011;53622;0.000;0.000;2023-04-01T09:58:50;1.80;;;0.82;;
66707;SDS011;53622;0.000;0.000;2023-04-01T10:05:30;2.42;;;1.08;;
66707;SDS011;53622;0.000;0.000;2023-04-01T10:08:28;2.95;;;0.80;;
66707;SDS011;53622;0.000;0.000;2023-04-01T10:11:16;1.98;;;0.98;;
66707;SDS011;53622;0.000;0.000;2023-04-01T10:17:30;1.48;;;0.73;;
66707;SDS011;53622;0.000;0.000;2023-04-01T10:20:23;2.20;;;0.90;;
66707;SDS011;53622;0.000;0.000;2023-04-01T10:26:33;1.10;;;0.80;;
66707;SDS011;53622;0.000;0.000;2023-04-01T10:29:52;1.50;;;0.77;;
66707;SDS011;53622;0.000;0.000;2023-04-01T10:32:59;1.38;;;0.75;;
66707;SDS011;53622;0.000;0.000;2023-04-01T10:36:21;2.08;;;0.88;;
66707;SDS011;53622;0.000;0.000;2023-04-01T10:52:14;2.35;;;0.70;;
66707;SDS011;53622;0.000;0.000;2023-04-01T10:55:28;1.00;;;0.60;;
66707;SDS011;53622;0.000;0.000;2023-04-01T10:58:50;1.75;;;0.63;;
66707;SDS011;53622;0.000;0.000;2023-04-01T11:09:03;2.85;;;0.82;;
66707;SDS011;53622;0.000;0.000;2023-04-01T11:15:21;0.98;;;0.45;;
66707;SDS011;53622;0.000;0.000;2023-04-01T11:27:49;1.08;;;0.55;;
66707;SDS011;53622;0.000;0.000;2023-04-01T11:30:40;1.17;;;0.55;;
66707;SDS011;53622;0.000;0.000;2023-04-01T11:33:22;1.65;;;0.63;;
66707;SDS011;53622;0.000;0.000;2023-04-01T11:36:00;0.98;;;0.70;;
66707;SDS011;53622;0.000;0.000;2023-04-01T11:41:49;2.35;;;0.60;;
66707;SDS011;53622;0.000;0.000;2023-04-01T11:44:45;1.10;;;0.45;;
66707;SDS011;53622;0.000;0.000;2023-04-01T11:47:44;0.70;;;0.50;;
66707;SDS011;53622;0.000;0.000;2023-04-01T11:50:26;1.45;;;0.55;;
66707;SDS011;53622;0.000;0.000;2023-04-01T11:53:14;0.82;;;0.43;;
66707;SDS011;53622;0.000;0.000;2023-04-01T11:55:55;1.35;;;0.60;;
66707;SDS011;53622;0.000;0.000;2023-04-01T12:01:46;0.85;;;0.57;;
66707;SDS011;53622;0.000;0.000;2023-04-01T12:04:45;0.85;;;0.40;;
66707;SDS011;53622;0.000;0.000;2023-04-01T12:07:27;0.50;;;0.30;;
66707;SDS011;53622;0.000;0.000;2023-04-01T12:10:15;0.73;;;0.40;;
66707;SDS011;53622;0.000;0.000;2023-04-01T12:12:48;1.15;;;0.60;;
66707;SDS011;53622;0.000;0.000;2023-04-01T12:15:29;0.68;;;0.40;;
66707;SDS011;53622;0.000;0.000;2023-04-01T12:18:07;0.95;;;0.60;;
66707;SDS011;53622;0.000;0.000;2023-04-01T12:20:48;0.45;;;0.38;;
66707;SDS011;53622;0.000;0.000;2023-04-01T12:23:35;0.63;;;0.43;;
66707;SDS011;53622;0.000;0.000;2023-04-01T12:26:27;0.40;;;0.30;;
66707;SDS011;53622;0.000;0.000;2023-04-01T12:29:34;1.10;;;0.40;;
66707;SDS011;53622;0.000;0.000;2023-04-01T12:32:20;0.73;;;0.50;;
66707;SDS011;53622;0.000;0.000;2023-04-01T12:35:17;0.60;;;0.40;;
66707;SDS011;53622;0.000;0.000;2023-04-01T12:38:10;0.55;;;0.50;;
66707;SDS011;53622;0.000;0.000;2023-04-01T12:40:51;2.15;;;0.50;;
66707;SDS011;53622;0.000;0.000;2023-04-01T12:43:35;0.70;;;0.40;;
66707;SDS011;53622;0.000;0.000;2023-04-01T12:46:25;1.05;;;0.40;;
66707;SDS011;53622;0.000;0.000;2023-04-01T12:52:09;0.93;;;0.35;;
66707;SDS011;53622;0.000;0.000;2023-04-01T13:01:02;1.27;;;0.52;;
66707;SDS011;53622;0.000;0.000;2023-04-01T13:03:52;0.30;;;0.30;;
66707;SDS011;53622;0.000;0.000;2023-04-01T13:06:44;1.30;;;0.50;;
66707;SDS011;53622;0.000;0.000;2023-04-01T13:09:31;0.68;;;0.22;;
66707;SDS011;53622;0.000;0.000;2023-04-01T13:12:18;0.60;;;0.40;;
66707;SDS011;53622;0.000;0.000;2023-04-01T13:15:10;0.95;;;0.50;;
66707;SDS011;53622;0.000;0.000;2023-04-01T13:17:52;0.32;;;0.32;;
66707;SDS011;53622;0.000;0.000;2023-04-01T13:20:29;0.70;;;0.30;;
66707;SDS011;53622;0.000;0.000;2023-04-01T13:23:13;1.20;;;0.30;;
66707;SDS011;53622;0.000;0.000;2023-04-01T13:25:53;0.20;;;0.20;;
66707;SDS011;53622;0.000;0.000;2023-04-01T13:28:42;0.93;;;0.40;;
66707;SDS011;53622;0.000;0.000;2023-04-01T13:31:25;0.32;;;0.28;;
66707;SDS011;53622;0.000;0.000;2023-04-01T13:34:08;0.98;;;0.40;;
66707;SDS011;53622;0.000;0.000;2023-04-01T13:36:49;0.57;;;0.45;;
66707;SDS011;53622;0.000;0.000;2023-04-01T13:39:36;0.35;;;0.35;;
66707;SDS011;53622;0.000;0.000;2023-04-01T13:42:28;0.75;;;0.50;;
66707;SDS011;53622;0.000;0.000;2023-04-01T13:45:02;0.60;;;0.30;;
66707;SDS011;53622;0.000;0.000;2023-04-01T13:47:52;0.38;;;0.30;;
66707;SDS011;53622;0.000;0.000;2023-04-01T13:50:53;0.30;;;0.30;;
66707;SDS011;53622;0.000;0.000;2023-04-01T13:53:35;0.50;;;0.22;;
66707;SDS011;53622;0.000;0.000;2023-04-01T13:56:22;0.40;;;0.30;;
66707;SDS011;53622;0.000;0.000;2023-04-01T13:59:22;0.40;;;0.20;;
66707;SDS011;53622;0.000;0.000;2023-04-01T14:02:20;0.30;;;0.20;;
66707;SDS011;53622;0.000;0.000;2023-04-01T14:05:09;0.40;;;0.30;;
66707;SDS011;53622;0.000;0.000;2023-04-01T14:08:06;0.57;;;0.32;;
66707;SDS011;53622;0.000;0.000;2023-04-01T14:10:47;1.25;;;0.52;;
66707;SDS011;53622;0.000;0.000;2023-04-01T14:13:29;0.60;;;0.40;;
66707;SDS011;53622;0.000;0.000;2023-04-01T14:16:22;0.43;;;0.28;;
66707;SDS011;53622;0.000;0.000;2023-04-01T14:19:18;0.50;;;0.30;;
66707;SDS011;53622;0.000;0.000;2023-04-01T14:22:03;0.47;;;0.47;;
66707;SDS011;53622;0.000;0.000;2023-04-01T14:24:49;0.85;;;0.30;;
66707;SDS011;53622;0.000;0.000;2023-04-01T14:27:34;0.45;;;0.30;;
66707;SDS011;53622;0.000;0.000;2023-04-01T14:30:20;0.57;;;0.22;;
66707;SDS011;53622;0.000;0.000;2023-04-01T14:33:06;0.75;;;0.45;;
66707;SDS011;53622;0.000;0.000;2023-04-01T14:35:49;0.30;;;0.30;;
66707;SDS011;53622;0.000;0.000;2023-04-01T14:38:31;0.20;;;0.17;;
66707;SDS011;53622;0.000;0.000;2023-04-01T14:41:20;0.85;;;0.57;;
66707;SDS011;53622;0.000;0.000;2023-04-01T14:44:11;0.82;;;0.30;;
66707;SDS011;53622;0.000;0.000;2023-04-01T14:50:03;0.65;;;0.20;;
66707;SDS011;53622;0.000;0.000;2023-04-01T14:52:38;0.22;;;0.20;;
66707;SDS011;53622;0.000;0.000;2023-04-01T14:58:15;0.43;;;0.22;;
66707;SDS011;53622;0.000;0.000;2023-04-01T15:00:50;0.28;;;0.20;;
66707;SDS011;53622;0.000;0.000;2023-04-01T15:03:28;0.80;;;0.30;;
66707;SDS011;53622;0.000;0.000;2023-04-01T15:06:10;0.30;;;0.20;;
66707;SDS011;53622;0.000;0.000;2023-04-01T15:08:56;0.40;;;0.22;;
66707;SDS011;53622;0.000;0.000;2023-04-01T15:11:32;1.50;;;0.20;;
66707;SDS011;53622;0.000;0.000;2023-04-01T15:14:22;0.25;;;0.20;;
66707;SDS011;53622;0.000;0.000;2023-04-01T15:17:12;0.45;;;0.30;;
66707;SDS011;53622;0.000;0.000;2023-04-01T15:19:57;0.20;;;0.10;;
66707;SDS011;53622;0.000;0.000;2023-04-01T15:22:42;0.68;;;0.32;;
66707;SDS011;53622;0.000;0.000;2023-04-01T15:25:39;0.40;;;0.20;;
66707;SDS011;53622;0.000;0.000;2023-04-01T15:28:22;1.45;;;0.30;;
66707;SDS011;53622;0.000;0.000;2023-04-01T15:31:01;0.43;;;0.25;;
66707;SDS011;53622;0.000;0.000;2023-04-01T15:33:49;0.22;;;0.20;;
66707;SDS011;53622;0.000;0.000;2023-04-01T15:36:34;0.28;;;0.25;;
66707;SDS011;53622;0.000;0.000;2023-04-01T15:39:12;0.57;;;0.20;;
66707;SDS011;53622;0.000;0.000;2023-04-01T15:41:48;0.90;;;0.30;;
66707;SDS011;53622;0.000;0.000;2023-04-01T15:44:41;0.43;;;0.20;;
66707;SDS011;53622;0.000;0.000;2023-04-01T15:47:35;0.30;;;0.20;;
66707;SDS011;53622;0.000;0.000;2023-04-01T15:53:08;1.05;;;0.30;;
66707;SDS011;53622;0.000;0.000;2023-04-01T15:55:53;0.40;;;0.40;;
66707;SDS011;53622;0.000;0.000;2023-04-01T15:58:32;0.30;;;0.20;;
66707;SDS011;53622;0.000;0.000;2023-04-01T16:01:18;0.40;;;0.20;;
66707;SDS011;53622;0.000;0.000;2023-04-01T16:03:59;0.30;;;0.10;;
66707;SDS011;53622;0.000;0.000;2023-04-01T16:06:47;0.20;;;0.20;;
66707;SDS011;53622;0.000;0.000;2023-04-01T16:12:36;0.77;;;0.30;;
66707;SDS011;53622;0.000;0.000;2023-04-01T16:15:19;0.93;;;0.30;;
66707;SDS011;53622;0.000;0.000;2023-04-01T16:20:57;0.30;;;0.20;;
66707;SDS011;53622;0.000;0.000;2023-04-01T16:23:34;1.17;;;0.15;;
66707;SDS011;53622;0.000;0.000;2023-04-01T16:26:08;0.25;;;0.13;;
66707;SDS011;53622;0.000;0.000;2023-04-01T16:28:48;0.20;;;0.20;;
66707;SDS011;53622;0.000;0.000;2023-04-01T16:31:32;0.40;;;0.20;;
66707;SDS011;53622;0.000;0.000;2023-04-01T16:34:08;0.20;;;0.20;;
66707;SDS011;53622;0.000;0.000;2023-04-01T16:36:45;0.20;;;0.20;;
66707;SDS011;53622;0.000;0.000;2023-04-01T16:39:22;0.55;;;0.28;;
66707;SDS011;53622;0.000;0.000;2023-04-01T16:42:08;0.20;;;0.20;;
66707;SDS011;53622;0.000;0.000;2023-04-01T16:44:46;0.35;;;0.28;;
66707;SDS011;53622;0.000;0.000;2023-04-01T16:47:23;0.17;;;0.10;;
66707;SDS011;53622;0.000;0.000;2023-04-01T16:49:59;0.20;;;0.20;;
66707;SDS011;53622;0.000;0.000;2023-04-01T16:52:47;0.20;;;0.20;;
66707;SDS011;53622;0.000;0.000;2023-04-01T16:55:34;0.47;;;0.10;;
66707;SDS011;53622;0.000;0.000;2023-04-01T16:58:10;1.38;;;0.25;;
66707;SDS011;53622;0.000;0.000;2023-04-01T17:00:47;0.50;;;0.30;;
66707;SDS011;53622;0.000;0.000;2023-04-01T17:03:21;0.13;;;0.10;;
66707;SDS011;53622;0.000;0.000;2023-04-01T17:06:00;0.10;;;0.10;;
66707;SDS011;53622;0.000;0.000;2023-04-01T17:08:50;0.30;;;0.30;;
66707;SDS011;53622;0.000;0.000;2023-04-01T17:11:43;0.38;;;0.20;;
66707;SDS011;53622;0.000;0.000;2023-04-01T17:14:20;0.20;;;0.20;;
66707;SDS011;53622;0.000;0.000;2023-04-01T17:16:59;0.20;;;0.13;;
66707;SDS011;53622;0.000;0.000;2023-04-01T17:19:54;0.20;;;0.17;;
66707;SDS011;53622;0.000;0.000;2023-04-01T17:22:36;0.20;;;0.20;;
66707;SDS011;53622;0.000;0.000;2023-04-01T17:25:16;0.35;;;0.20;;
66707;SDS011;53622;0.000;0.000;2023-04-01T17:27:59;0.32;;;0.25;;
66707;SDS011;53622;0.000;0.000;2023-04-01T17:30:33;0.20;;;0.15;;
66707;SDS011;53622;0.000;0.000;2023-04-01T17:33:14;0.10;;;0.10;;
66707;SDS011;53622;0.000;0.000;2023-04-01T17:36:03;0.25;;;0.20;;
66707;SDS011;53622;0.000;0.000;2023-04-01T17:38:45;0.20;;;0.20;;
66707;SDS011;53622;0.000;0.000;2023-04-01T17:41:28;0.95;;;0.30;;
66707;SDS011;53622;0.000;0.000;2023-04-01T17:44:11;0.20;;;0.10;;
66707;SDS011;53622;0.000;0.000;2023-04-01T17:47:04;0.35;;;0.20;;
66707;SDS011;53622;0.000;0.000;2023-04-01T17:49:45;0.20;;;0.20;;
66707;SDS011;53622;0.000;0.000;2023-04-01T17:52:24;0.40;;;0.10;;
66707;SDS011;53622;0.000;0.000;2023-04-01T17:54:59;0.20;;;0.10;;
66707;SDS011;53622;0.000;0.000;2023-04-01T17:57:46;0.20;;;0.10;;
66707;SDS011;53622;0.000;0.000;2023-04-01T18:00:23;0.20;;;0.17;;
66707;SDS011;53622;0.000;0.000;2023-04-01T18:03:18;0.38;;;0.20;;
66707;SDS011;53622;0.000;0.000;2023-04-01T18:06:00;0.63;;;0.30;;